createdAt,value
2018-04-13T00:01:26.079Z,44.10
2018-04-13T00:03:53.776Z,44.00
2018-04-13T00:06:21.393Z,44.10
2018-04-13T00:08:49.100Z,44.10
2018-04-13T00:11:16.724Z,44.20
2018-04-13T00:13:44.517Z,44.30
2018-04-13T00:16:12.184Z,44.30
2018-04-13T00:18:40.250Z,44.20
2018-04-13T00:21:07.946Z,44.30
2018-04-13T00:23:36.364Z,44.40
2018-04-13T00:26:04.097Z,44.40
2018-04-13T00:28:32.527Z,44.60
2018-04-13T00:31:00.236Z,44.60
2018-04-13T00:33:28.632Z,44.60
2018-04-13T00:35:57.072Z,44.80
2018-04-13T00:38:24.928Z,44.80
2018-04-13T00:40:52.544Z,44.90
2018-04-13T00:43:21.123Z,45.10
2018-04-13T00:45:49.688Z,45.10
2018-04-13T00:48:17.523Z,45.10
2018-04-13T00:50:46.416Z,45.40
2018-04-13T00:53:26.068Z,45.20
2018-04-13T00:55:53.719Z,45.40
2018-04-13T00:58:21.412Z,45.40
2018-04-13T01:00:49.185Z,45.60
2018-04-13T01:03:17.763Z,45.60
2018-04-13T01:05:45.383Z,45.50
2018-04-13T01:08:13.013Z,45.70
2018-04-13T01:10:40.821Z,45.80
2018-04-13T01:13:08.588Z,45.80
2018-04-13T01:15:36.457Z,45.90
2018-04-13T01:18:04.244Z,46.00
2018-04-13T01:20:32.017Z,46.10
2018-04-13T01:22:59.656Z,46.20
2018-04-13T01:25:27.413Z,45.80
2018-04-13T01:27:55.277Z,46.20
2018-04-13T01:30:23.044Z,46.30
2018-04-13T01:32:50.816Z,46.40
2018-04-13T01:35:18.516Z,46.40
2018-04-13T01:37:46.894Z,46.50
2018-04-13T01:40:15.364Z,46.50
2018-04-13T01:42:43.124Z,46.50
2018-04-13T01:45:10.966Z,46.40
2018-04-13T01:47:38.583Z,46.60
2018-04-13T01:50:06.999Z,46.70
2018-04-13T01:52:34.767Z,46.70
2018-04-13T01:55:02.532Z,46.70
2018-04-13T01:57:31.184Z,47.50
2018-04-13T01:59:59.612Z,47.00
2018-04-13T02:02:27.465Z,47.00
2018-04-13T02:04:55.117Z,47.10
2018-04-13T02:07:22.752Z,47.20
2018-04-13T02:09:51.301Z,47.40
2018-04-13T02:12:19.038Z,47.40
2018-04-13T02:14:46.668Z,47.40
2018-04-13T02:17:14.325Z,47.50
2018-04-13T02:19:41.932Z,47.50
2018-04-13T02:22:09.686Z,47.60
2018-04-13T02:24:37.552Z,47.70
2018-04-13T02:27:05.272Z,47.80
2018-04-13T02:29:33.649Z,48.00
2018-04-13T02:32:02.211Z,48.10
2018-04-13T02:34:30.007Z,48.10
2018-04-13T02:36:57.632Z,48.10
2018-04-13T02:39:25.534Z,48.20
2018-04-13T02:41:53.247Z,48.30
2018-04-13T02:44:20.915Z,48.20
2018-04-13T02:46:48.643Z,48.30
2018-04-13T02:49:16.434Z,48.30
2018-04-13T02:51:44.064Z,48.30
2018-04-13T02:54:11.857Z,48.30
2018-04-13T02:56:39.622Z,48.30
2018-04-13T02:59:07.388Z,48.40
2018-04-13T03:01:35.029Z,48.50
2018-04-13T03:04:02.676Z,48.50
2018-04-13T03:06:30.284Z,48.60
2018-04-13T03:08:57.900Z,48.60
2018-04-13T03:11:25.548Z,48.70
2018-04-13T03:13:53.923Z,48.60
2018-04-13T03:16:22.413Z,48.60
2018-04-13T03:18:50.077Z,48.60
2018-04-13T03:21:18.711Z,48.70
2018-04-13T03:23:46.326Z,48.70
2018-04-13T03:26:14.853Z,48.60
2018-04-13T03:28:42.640Z,48.60
2018-04-13T03:31:10.393Z,48.60
2018-04-13T03:33:38.142Z,48.70
2018-04-13T03:36:06.008Z,48.70
2018-04-13T03:38:33.666Z,48.80
2018-04-13T03:41:01.289Z,48.90
2018-04-13T03:43:29.126Z,48.90
2018-04-13T03:45:56.963Z,48.90
2018-04-13T03:48:24.727Z,49.10
2018-04-13T03:50:52.497Z,49.10
2018-04-13T03:53:20.365Z,49.20
2018-04-13T03:55:47.986Z,49.30
2018-04-13T03:58:17.489Z,49.40
2018-04-13T04:00:45.920Z,49.40
2018-04-13T04:03:13.701Z,49.40
2018-04-13T04:05:41.484Z,49.50
2018-04-13T04:08:09.948Z,49.60
2018-04-13T04:10:37.713Z,49.40
2018-04-13T04:13:05.483Z,49.60
2018-04-13T04:15:33.254Z,49.60
2018-04-13T04:18:01.678Z,50.50
2018-04-13T04:20:42.193Z,49.80
2018-04-13T04:23:21.608Z,49.90
2018-04-13T04:26:01.362Z,50.00
2018-04-13T04:28:29.041Z,50.10
2018-04-13T04:30:56.733Z,50.70
2018-04-13T04:33:24.429Z,50.40
2018-04-13T04:35:52.193Z,50.40
2018-04-13T04:38:19.811Z,50.30
2018-04-13T04:40:48.338Z,50.60
2018-04-13T04:43:16.004Z,50.60
2018-04-13T04:45:43.630Z,50.80
2018-04-13T04:48:12.139Z,50.80
2018-04-13T04:50:39.908Z,50.80
2018-04-13T04:53:08.332Z,51.20
2018-04-13T04:55:36.744Z,51.90
2018-04-13T04:58:04.356Z,51.20
2018-04-13T05:00:32.012Z,51.20
2018-04-13T05:02:59.860Z,51.20
2018-04-13T05:05:31.841Z,51.40
2018-04-13T05:07:59.480Z,51.50
2018-04-13T05:10:27.164Z,51.50
2018-04-13T05:12:54.775Z,52.30
2018-04-13T05:15:22.384Z,51.70
2018-04-13T05:17:50.239Z,51.90
2018-04-13T05:20:19.310Z,52.00
2018-04-13T05:22:47.683Z,52.10
2018-04-13T05:25:15.480Z,52.00
2018-04-13T05:27:43.168Z,52.00
2018-04-13T05:30:10.788Z,52.10
2018-04-13T05:32:38.419Z,52.20
2018-04-13T05:35:07.011Z,52.20
2018-04-13T05:37:34.816Z,52.20
2018-04-13T05:40:02.581Z,52.10
2018-04-13T05:42:30.446Z,52.10
2018-04-13T05:44:58.145Z,52.30
2018-04-13T05:47:25.875Z,52.30
2018-04-13T05:49:53.610Z,53.10
2018-04-13T05:52:21.923Z,52.30
2018-04-13T05:54:49.578Z,52.10
2018-04-13T05:57:18.165Z,52.10
2018-04-13T05:59:45.837Z,52.40
2018-04-13T06:02:13.566Z,52.60
2018-04-13T06:04:41.248Z,52.90
2018-04-13T06:07:08.855Z,52.90
2018-04-13T06:09:37.309Z,53.30
2018-04-13T06:12:04.977Z,53.10
2018-04-13T06:14:32.638Z,53.30
2018-04-13T06:17:01.105Z,54.20
2018-04-13T06:19:28.726Z,53.80
2018-04-13T06:21:56.361Z,54.00
2018-04-13T06:24:24.165Z,54.20
2018-04-13T06:26:52.675Z,54.40
2018-04-13T06:29:20.291Z,54.30
2018-04-13T06:31:48.814Z,54.90
2018-04-13T06:34:16.588Z,54.80
2018-04-13T06:36:44.257Z,54.70
2018-04-13T06:39:11.898Z,55.00
2018-04-13T06:41:39.561Z,55.20
2018-04-13T06:44:07.247Z,55.30
2018-04-13T06:46:37.710Z,55.50
2018-04-13T06:49:07.097Z,55.80
2018-04-13T06:51:35.895Z,55.80
2018-04-13T06:54:03.843Z,55.80
2018-04-13T06:56:32.296Z,56.20
2018-04-13T06:58:59.942Z,56.00
2018-04-13T07:01:27.612Z,56.10
2018-04-13T07:03:55.272Z,56.20
2018-04-13T07:06:22.904Z,56.30
2018-04-13T07:08:51.291Z,56.50
2018-04-13T07:11:18.964Z,56.50
2018-04-13T07:13:47.709Z,57.00
2018-04-13T07:16:15.485Z,56.80
2018-04-13T07:18:43.926Z,56.90
2018-04-13T07:21:11.542Z,56.90
2018-04-13T07:23:39.192Z,57.10
2018-04-13T07:26:10.038Z,57.20
2018-04-13T07:28:37.950Z,57.60
2018-04-13T07:31:07.296Z,57.40
2018-04-13T07:33:35.696Z,58.00
2018-04-13T07:36:04.284Z,57.40
2018-04-13T07:38:31.748Z,57.30
2018-04-13T07:40:59.445Z,57.30
2018-04-13T07:43:27.143Z,57.30
2018-04-13T07:45:55.789Z,57.20
2018-04-13T07:48:23.808Z,57.20
2018-04-13T07:50:51.245Z,57.20
2018-04-13T07:53:18.980Z,57.10
2018-04-13T07:55:46.644Z,57.00
2018-04-13T07:58:14.267Z,56.90
2018-04-13T08:00:42.786Z,56.90
2018-04-13T08:03:10.424Z,56.90
2018-04-13T08:05:38.084Z,57.00
2018-04-13T08:08:05.874Z,56.90
2018-04-13T08:10:33.531Z,57.00
2018-04-13T08:13:01.183Z,56.80
2018-04-13T08:15:28.929Z,56.80
2018-04-13T08:17:56.596Z,56.80
2018-04-13T08:20:24.243Z,56.80
2018-04-13T08:22:52.714Z,57.00
2018-04-13T08:25:21.181Z,56.70
2018-04-13T08:27:51.259Z,56.80
2018-04-13T08:30:18.927Z,56.70
2018-04-13T08:32:46.696Z,56.60
2018-04-13T08:35:14.564Z,56.70
2018-04-13T08:37:42.196Z,56.90
2018-04-13T08:40:09.917Z,56.70
2018-04-13T08:42:37.681Z,56.70
2018-04-13T08:45:05.458Z,56.50
2018-04-13T08:47:33.289Z,56.70
2018-04-13T08:50:01.154Z,56.10
2018-04-13T08:52:28.772Z,56.40
2018-04-13T08:54:57.286Z,56.70
2018-04-13T08:57:24.961Z,56.70
2018-04-13T08:59:52.724Z,55.80
2018-04-13T09:02:20.590Z,55.90
2018-04-13T09:04:48.215Z,55.70
2018-04-13T09:07:16.634Z,55.80
2018-04-13T09:09:44.329Z,55.80
2018-04-13T09:12:12.720Z,56.20
2018-04-13T09:14:41.186Z,55.70
2018-04-13T09:17:08.921Z,55.30
2018-04-13T09:19:36.788Z,55.40
2018-04-13T09:22:04.655Z,54.60
2018-04-13T09:24:32.353Z,54.80
2018-04-13T09:27:00.084Z,54.80
2018-04-13T09:29:27.858Z,55.60
2018-04-13T09:31:55.611Z,55.00
2018-04-13T09:34:23.260Z,55.30
2018-04-13T09:36:50.934Z,55.30
2018-04-13T09:39:18.701Z,55.40
2018-04-13T09:41:46.380Z,55.20
2018-04-13T09:44:14.230Z,55.40
2018-04-13T09:46:41.872Z,55.30
2018-04-13T09:49:09.508Z,55.50
2018-04-13T09:51:37.181Z,55.30
2018-04-13T09:54:04.983Z,55.20
2018-04-13T09:56:32.600Z,55.20
2018-04-13T09:59:01.053Z,54.80
2018-04-13T10:01:34.460Z,54.70
2018-04-13T10:04:05.257Z,55.60
2018-04-13T10:06:32.877Z,55.10
2018-04-13T10:09:01.401Z,55.30
2018-04-13T10:11:29.166Z,55.20
2018-04-13T10:13:56.856Z,55.60
2018-04-13T10:16:24.635Z,55.60
2018-04-13T10:18:53.223Z,55.70
2018-04-13T10:21:21.721Z,55.80
2018-04-13T10:23:50.243Z,55.50
2018-04-13T10:26:21.778Z,55.50
2018-04-13T10:28:49.561Z,55.60
2018-04-13T10:31:17.208Z,55.80
2018-04-13T10:33:44.836Z,56.60
2018-04-13T10:36:13.397Z,57.30
2018-04-13T10:38:41.062Z,57.30
2018-04-13T10:41:08.807Z,57.80
2018-04-13T10:43:36.428Z,58.20
2018-04-13T10:46:04.162Z,58.80
2018-04-13T10:48:34.513Z,58.70
2018-04-13T10:51:02.310Z,58.70
2018-04-13T10:53:29.931Z,58.60
2018-04-13T10:55:58.381Z,58.70
2018-04-13T10:58:26.219Z,58.60
2018-04-13T11:00:53.851Z,58.80
2018-04-13T11:03:21.516Z,59.00
2018-04-13T11:05:49.138Z,58.90
2018-04-13T11:08:16.754Z,58.80
2018-04-13T11:10:44.532Z,58.90
2018-04-13T11:13:12.175Z,58.50
2018-04-13T11:15:39.959Z,58.60
2018-04-13T11:18:07.603Z,58.90
2018-04-13T11:20:35.389Z,59.00
2018-04-13T11:23:03.078Z,59.00
2018-04-13T11:25:30.747Z,58.90
2018-04-13T11:27:58.899Z,58.60
2018-04-13T11:30:26.551Z,58.70
2018-04-13T11:32:54.243Z,59.00
2018-04-13T11:35:21.882Z,58.60
2018-04-13T11:37:49.547Z,58.90
2018-04-13T11:40:17.232Z,58.90
2018-04-13T11:42:45.650Z,59.50
2018-04-13T11:45:13.311Z,59.50
2018-04-13T11:47:40.943Z,58.80
2018-04-13T11:50:09.336Z,58.50
2018-04-13T11:52:37.894Z,58.20
2018-04-13T11:55:06.052Z,58.10
2018-04-13T11:57:33.906Z,57.70
2018-04-13T12:00:01.563Z,57.30
2018-04-13T12:02:29.248Z,56.60
2018-04-13T12:04:56.864Z,56.50
2018-04-13T12:07:24.557Z,56.80
2018-04-13T12:09:52.352Z,57.00
2018-04-13T12:12:20.186Z,57.00
2018-04-13T12:14:48.055Z,57.50
2018-04-13T12:17:15.729Z,56.90
2018-04-13T12:19:43.344Z,57.10
2018-04-13T12:22:11.178Z,57.50
2018-04-13T12:24:39.575Z,56.90
2018-04-13T12:27:08.108Z,56.90
2018-04-13T12:29:35.873Z,56.90
2018-04-13T12:32:03.507Z,56.90
2018-04-13T12:34:31.198Z,56.80
2018-04-13T12:36:58.824Z,57.10
2018-04-13T12:39:26.433Z,57.20
2018-04-13T12:41:54.186Z,57.10
2018-04-13T12:44:21.803Z,57.30
2018-04-13T12:46:50.206Z,58.30
2018-04-13T12:49:17.861Z,58.30
2018-04-13T12:51:45.485Z,60.00
2018-04-13T12:54:13.988Z,59.50
2018-04-13T12:56:41.810Z,59.40
2018-04-13T12:59:09.452Z,59.10
2018-04-13T13:01:37.125Z,58.90
2018-04-13T13:04:04.755Z,58.90
2018-04-13T13:06:32.549Z,58.20
2018-04-13T13:09:00.341Z,58.00
2018-04-13T13:11:28.050Z,57.30
2018-04-13T13:13:55.771Z,57.10
2018-04-13T13:16:23.453Z,56.50
2018-04-13T13:18:52.267Z,56.40
2018-04-13T13:21:19.900Z,56.30
2018-04-13T13:23:48.307Z,55.50
2018-04-13T13:26:15.912Z,55.40
2018-04-13T13:28:43.662Z,55.10
2018-04-13T13:31:11.424Z,54.50
2018-04-13T13:33:39.096Z,54.10
2018-04-13T13:36:06.874Z,53.70
2018-04-13T13:38:34.496Z,52.90
2018-04-13T13:41:02.133Z,51.30
2018-04-13T13:43:31.580Z,51.60
2018-04-13T13:45:59.450Z,51.50
2018-04-13T13:48:27.060Z,52.50
2018-04-13T13:50:55.478Z,51.70
2018-04-13T13:53:23.254Z,51.60
2018-04-13T13:55:51.122Z,51.30
2018-04-13T13:58:18.741Z,51.70
2018-04-13T14:00:46.425Z,51.90
2018-04-13T14:03:14.211Z,52.20
2018-04-13T14:05:41.975Z,52.30
2018-04-13T14:08:09.739Z,52.20
2018-04-13T14:10:37.432Z,52.20
2018-04-13T14:13:05.076Z,52.30
2018-04-13T14:15:32.753Z,52.70
2018-04-13T14:18:00.442Z,52.80
2018-04-13T14:20:28.820Z,53.00
2018-04-13T14:22:57.125Z,53.00
2018-04-13T14:25:24.808Z,53.00
2018-04-13T14:27:52.574Z,52.80
2018-04-13T14:30:20.212Z,53.00
2018-04-13T14:32:47.820Z,52.90
2018-04-13T14:35:15.590Z,52.60
2018-04-13T14:37:43.353Z,52.70
2018-04-13T14:40:11.092Z,53.20
2018-04-13T14:42:38.957Z,53.40
2018-04-13T14:45:06.723Z,53.40
2018-04-13T14:47:34.593Z,53.60
2018-04-13T14:50:02.209Z,53.30
2018-04-13T14:52:30.734Z,53.00
2018-04-13T14:54:58.377Z,52.90
2018-04-13T14:57:26.041Z,53.10
2018-04-13T14:59:53.692Z,53.00
2018-04-13T15:02:21.369Z,53.00
2018-04-13T15:04:49.077Z,54.80
2018-04-13T15:07:16.913Z,59.00
2018-04-13T15:09:44.551Z,63.60
2018-04-13T15:12:12.242Z,68.00
2018-04-13T15:14:39.852Z,65.80
2018-04-13T15:17:08.306Z,71.10
2018-04-13T15:19:35.952Z,71.00
2018-04-13T15:22:03.601Z,68.00
2018-04-13T15:24:31.231Z,68.40
2018-04-13T15:27:00.688Z,68.60
2018-04-13T15:29:28.565Z,68.50
2018-04-13T15:31:56.230Z,59.10
2018-04-13T15:34:23.962Z,56.80
2018-04-13T15:36:51.611Z,57.90
2018-04-13T15:39:19.243Z,56.40
2018-04-13T15:41:47.872Z,66.10
2018-04-13T15:44:15.638Z,66.10
2018-04-13T15:46:43.331Z,68.20
2018-04-13T15:49:11.167Z,70.30
2018-04-13T15:51:39.750Z,71.70
2018-04-13T15:54:07.541Z,72.20
2018-04-13T15:56:35.196Z,73.60
2018-04-13T15:59:02.804Z,75.20
2018-04-13T16:01:31.448Z,74.70
2018-04-13T16:03:59.152Z,74.50
2018-04-13T16:06:26.795Z,75.20
2018-04-13T16:08:55.168Z,74.60
2018-04-13T16:11:22.893Z,74.40
2018-04-13T16:13:50.664Z,73.50
2018-04-13T16:16:18.427Z,74.00
2018-04-13T16:18:46.096Z,73.30
2018-04-13T16:21:13.706Z,71.90
2018-04-13T16:23:42.238Z,71.20
2018-04-13T16:26:10.046Z,71.20
2018-04-13T16:28:38.578Z,72.50
2018-04-13T16:31:06.486Z,72.30
2018-04-13T16:33:34.223Z,72.70
2018-04-13T16:36:03.473Z,72.10
2018-04-13T16:38:32.101Z,74.10
2018-04-13T16:40:59.907Z,74.00
2018-04-13T16:43:29.530Z,74.60
2018-04-13T16:45:57.344Z,74.50
2018-04-13T16:48:24.980Z,72.60
2018-04-13T16:50:52.588Z,74.10
2018-04-13T16:53:21.066Z,72.40
2018-04-13T16:55:48.684Z,72.40
2018-04-13T16:58:16.421Z,73.20
2018-04-13T17:00:44.839Z,74.10
2018-04-13T17:03:12.563Z,74.10
2018-04-13T17:05:41.118Z,73.00
2018-04-13T17:08:09.705Z,73.70
2018-04-13T17:10:37.541Z,73.70
2018-04-13T17:13:05.182Z,71.90
2018-04-13T17:15:33.073Z,72.10
2018-04-13T17:18:00.739Z,73.10
2018-04-13T17:20:28.421Z,73.30
2018-04-13T17:22:57.220Z,73.20
2018-04-13T17:25:25.097Z,74.60
2018-04-13T17:27:53.536Z,74.30
2018-04-13T17:30:21.180Z,74.30
2018-04-13T17:32:48.804Z,72.40
2018-04-13T17:35:16.653Z,71.70
2018-04-13T17:37:45.069Z,74.70
2018-04-13T17:40:13.590Z,74.40
2018-04-13T17:42:41.279Z,74.40
2018-04-13T17:45:08.925Z,74.50
2018-04-13T17:47:36.601Z,74.40
2018-04-13T17:50:04.266Z,73.80
2018-04-13T17:52:32.513Z,72.20
2018-04-13T17:55:00.696Z,71.90
2018-04-13T17:57:28.656Z,71.90
2018-04-13T17:59:57.545Z,72.80
2018-04-13T18:02:25.829Z,72.60
2018-04-13T18:04:54.817Z,73.80
2018-04-13T18:07:24.017Z,73.80
2018-04-13T18:09:53.967Z,73.40
2018-04-13T18:12:23.758Z,74.00
2018-04-13T18:14:53.038Z,73.00
2018-04-13T18:17:22.037Z,73.20
2018-04-13T18:19:51.968Z,73.40
2018-04-13T18:22:20.444Z,73.40
2018-04-13T18:24:49.326Z,72.30
2018-04-13T18:27:17.501Z,72.30
2018-04-13T18:29:45.574Z,70.70
2018-04-13T18:32:13.645Z,71.30
2018-04-13T18:34:41.944Z,71.20
2018-04-13T18:37:10.941Z,71.00
2018-04-13T18:39:39.522Z,71.30
2018-04-13T18:42:07.187Z,70.60
2018-04-13T18:44:34.872Z,70.80
2018-04-13T18:47:04.153Z,71.00
2018-04-13T18:49:31.891Z,71.00
2018-04-13T18:51:59.733Z,71.20
2018-04-13T18:54:27.341Z,70.90
2018-04-13T18:56:55.901Z,71.50
2018-04-13T18:59:23.667Z,71.60
2018-04-13T19:01:51.292Z,72.30
2018-04-13T19:04:19.118Z,71.50
2018-04-13T19:06:46.813Z,71.10
2018-04-13T19:09:15.370Z,72.10
2018-04-13T19:11:43.932Z,72.60
2018-04-13T19:14:11.535Z,72.50
2018-04-13T19:16:40.003Z,72.40
2018-04-13T19:19:07.644Z,72.30
2018-04-13T19:21:35.303Z,72.70
2018-04-13T19:24:03.056Z,73.30
2018-04-13T19:26:30.673Z,73.90
2018-04-13T19:28:59.302Z,74.60
2018-04-13T19:31:26.994Z,74.50
2018-04-13T19:33:54.646Z,74.00
2018-04-13T19:36:22.315Z,74.80
2018-04-13T19:38:51.590Z,75.50
2018-04-13T19:41:19.354Z,75.50
2018-04-13T19:43:47.119Z,75.60
2018-04-13T19:46:14.913Z,75.30
2018-04-13T19:48:42.544Z,75.40
2018-04-13T19:51:10.154Z,75.70
2018-04-13T19:53:39.490Z,76.30
2018-04-13T19:56:07.137Z,76.20
2018-04-13T19:58:34.854Z,76.50
2018-04-13T20:01:02.528Z,76.40
2018-04-13T20:03:30.160Z,76.70
2018-04-13T20:05:57.857Z,77.00
2018-04-13T20:08:25.585Z,77.40
2018-04-13T20:10:53.396Z,77.20
2018-04-13T20:13:21.853Z,76.00
2018-04-13T20:15:49.513Z,76.00
2018-04-13T20:18:19.055Z,76.90
2018-04-13T20:20:47.464Z,77.00
2018-04-13T20:23:15.114Z,77.00
2018-04-13T20:25:43.460Z,77.00
2018-04-13T20:28:11.078Z,76.10
2018-04-13T20:30:38.725Z,75.70
2018-04-13T20:33:06.442Z,76.40
2018-04-13T20:35:34.091Z,76.90
2018-04-13T20:38:01.713Z,74.60
2018-04-13T20:40:29.344Z,73.50
2018-04-13T20:42:57.753Z,74.30
2018-04-13T20:45:25.458Z,74.30
2018-04-13T20:47:53.119Z,72.80
2018-04-13T20:50:20.831Z,71.60
2018-04-13T20:52:49.382Z,67.70
2018-04-13T20:55:17.039Z,67.70
2018-04-13T20:57:46.220Z,64.60
2018-04-13T21:00:13.886Z,64.60
2018-04-13T21:02:41.515Z,64.30
2018-04-13T21:05:09.181Z,64.60
2018-04-13T21:07:36.872Z,64.70
2018-04-13T21:10:04.517Z,64.00
2018-04-13T21:12:32.191Z,63.60
2018-04-13T21:14:59.885Z,63.60
2018-04-13T21:17:28.333Z,63.40
2018-04-13T21:19:55.991Z,63.10
2018-04-13T21:22:23.638Z,63.20
2018-04-13T21:24:51.464Z,62.50
2018-04-13T21:27:19.162Z,62.30
2018-04-13T21:29:46.808Z,62.40
2018-04-13T21:32:14.445Z,62.50
2018-04-13T21:34:42.077Z,62.80
2018-04-13T21:37:09.757Z,63.20
2018-04-13T21:39:37.408Z,62.50
2018-04-13T21:42:05.051Z,62.30
2018-04-13T21:44:32.700Z,62.50
2018-04-13T21:47:00.315Z,62.30
2018-04-13T21:49:28.786Z,62.00
2018-04-13T21:51:56.483Z,61.90
2018-04-13T21:54:24.191Z,63.00
2018-04-13T21:56:51.859Z,62.10
2018-04-13T21:59:19.518Z,61.80
2018-04-13T22:01:48.115Z,61.70
2018-04-13T22:04:15.806Z,61.60
2018-04-13T22:06:44.230Z,62.00
2018-04-13T22:09:11.874Z,61.90
2018-04-13T22:11:39.976Z,61.50
2018-04-13T22:14:20.365Z,61.70
2018-04-13T22:16:48.076Z,61.60
2018-04-13T22:19:15.862Z,61.60
2018-04-13T22:21:43.481Z,61.70
2018-04-13T22:24:11.925Z,63.10
2018-04-13T22:26:39.594Z,63.10
2018-04-13T22:29:07.225Z,62.40
2018-04-13T22:31:34.997Z,62.70
2018-04-13T22:34:02.632Z,63.10
2018-04-13T22:36:30.331Z,63.40
2018-04-13T22:38:57.972Z,63.50
2018-04-13T22:41:25.588Z,63.60
2018-04-13T22:43:53.307Z,63.70
2018-04-13T22:46:20.956Z,64.40
2018-04-13T22:48:48.617Z,64.50
2018-04-13T22:51:16.319Z,64.80
2018-04-13T22:53:43.971Z,65.30
2018-04-13T22:56:11.633Z,65.20
2018-04-13T22:58:39.334Z,65.50
2018-04-13T23:01:07.710Z,66.20
2018-04-13T23:03:36.240Z,66.20
2018-04-13T23:06:03.896Z,66.20
2018-04-13T23:08:31.542Z,66.50
2018-04-13T23:10:59.263Z,67.50
2018-04-13T23:13:26.940Z,66.60
2018-04-13T23:15:55.398Z,67.20
2018-04-13T23:18:23.047Z,67.20
2018-04-13T23:20:50.708Z,67.30
2018-04-13T23:23:18.449Z,68.30
2018-04-13T23:25:46.065Z,68.60
2018-04-13T23:28:14.457Z,69.40
2018-04-13T23:30:42.868Z,69.70
2018-04-13T23:33:10.480Z,69.70
2018-04-13T23:35:38.149Z,69.80
2018-04-13T23:38:05.846Z,70.10
2018-04-13T23:40:33.459Z,70.40
2018-04-13T23:43:01.105Z,70.60
2018-04-13T23:45:28.775Z,70.60
2018-04-13T23:47:56.421Z,71.30
2018-04-13T23:50:24.098Z,70.50
2018-04-13T23:52:52.590Z,70.40
2018-04-13T23:55:20.239Z,70.40
2018-04-13T23:57:48.752Z,70.70
